Time;durP1;ratioP1;P1;durP2;ratioP2;P2;SDS_P1;SDS_P2;PMS_P1;PMS_P2;Temp;Humidity;BMP_temperature;BMP_pressure;BME280_temperature;BME280_humidity;BME280_pressure;Samples;Min_cycle;Max_cycle;Signal;HPM_P1;HPM_P2
2022/12/01 00:07:54;;;;;;;3.63;2.10;;;;;;;;;;21055185;28;20208;-66
2022/12/01 00:17:57;;;;;;;3.17;1.87;;;6.60;99.90;;;;;;21073085;28;20270;-66
2022/12/01 00:27:59;;;;;;;4.60;2.27;;;;;;;;;;21071011;28;20261;-67
2022/12/01 00:38:02;;;;;;;3.70;2.30;;;;;;;;;;21070569;28;20234;-66
2022/12/01 00:48:04;;;;;;;3.43;2.10;;;;;;;;;;21051808;28;20219;-66
2022/12/01 00:58:06;;;;;;;5.50;2.77;;;;;;;;;;21034355;28;20232;-66
2022/12/01 01:08:09;;;;;;;4.17;2.40;;;6.50;99.90;;;;;;21043314;28;20232;-65
2022/12/01 01:18:11;;;;;;;4.37;2.30;;;6.60;99.90;;;;;;21066933;28;20246;-65
2022/12/01 01:28:14;;;;;;;3.60;2.17;;;;;;;;;;21067455;28;20301;-65
2022/12/01 01:38:16;;;;;;;5.87;2.70;;;6.50;99.90;;;;;;21066840;28;20266;-66
2022/12/01 01:48:17;;;;;;;3.87;2.53;;;;;;;;;;21048725;28;20751;-67
2022/12/01 01:58:20;;;;;;;2.50;1.83;;;;;;;;;;21060691;28;20609;-66
2022/12/01 02:08:22;;;;;;;5.50;2.90;;;;;;;;;;21065003;28;20224;-66
2022/12/01 02:18:24;;;;;;;4.90;3.13;;;;;;;;;;21030546;28;20629;-66
2022/12/01 02:28:46;;;;;;;5.07;2.97;;;;;;;;;;21065105;28;20197;-66
2022/12/01 02:38:58;;;;;;;3.93;2.53;;;6.40;99.90;;;;;;21065164;28;20615;-66
2022/12/01 02:49:03;;;;;;;5.40;3.40;;;;;;;;;;21065035;28;20216;-66
2022/12/01 02:59:11;;;;;;;6.30;3.20;;;;;;;;;;21056901;28;20196;-66
2022/12/01 03:09:13;;;;;;;4.50;3.27;;;;;;;;;;21059765;28;20238;-66
2022/12/01 03:19:33;;;;;;;5.83;3.30;;;6.30;99.90;;;;;;21077881;28;20226;-65
2022/12/01 03:29:35;;;;;;;6.00;3.17;;;;;;;;;;21077342;28;20269;-66
2022/12/01 03:39:38;;;;;;;6.30;3.80;;;;;;;;;;21075868;28;20571;-66
2022/12/01 03:49:40;;;;;;;6.77;4.17;;;;;;;;;;21075039;28;20216;-66
2022/12/01 03:59:43;;;;;;;6.33;4.20;;;;;;;;;;21056214;28;20242;-66
2022/12/01 04:09:44;;;;;;;6.77;3.23;;;;;;;;;;21054682;28;20238;-67
2022/12/01 04:19:46;;;;;;;5.90;3.47;;;;;;;;;;21072256;28;20229;-66
2022/12/01 04:29:48;;;;;;;6.70;3.63;;;;;;;;;;21053623;28;20221;-65
2022/12/01 04:39:50;;;;;;;6.03;3.47;;;;;;;;;;21056136;28;20209;-65
2022/12/01 04:49:52;;;;;;;6.53;3.73;;;;;;;;;;21071271;28;20780;-67
2022/12/01 04:59:54;;;;;;;4.73;2.70;;;;;;;;;;21050244;28;20286;-66
2022/12/01 05:09:56;;;;;;;5.27;3.00;;;;;;;;;;21068871;28;20204;-66
2022/12/01 05:30:18;;;;;;;3.33;2.27;;;;;;;;;;21068614;28;20220;-66
2022/12/01 05:40:20;;;;;;;4.37;2.27;;;;;;;;;;21067608;28;20208;-66
2022/12/01 05:50:22;;;;;;;5.27;2.43;;;;;;;;;;21095863;22;20224;-67
2022/12/01 06:00:24;;;;;;;4.20;2.30;;;;;;;;;;21149412;28;20203;-67
2022/12/01 06:10:25;;;;;;;4.93;2.60;;;;;;;;;;21150275;28;20211;-68
2022/12/01 06:20:27;;;;;;;4.30;2.30;;;;;;;;;;21146334;28;20968;-68
2022/12/01 06:30:29;;;;;;;3.33;2.07;;;;;;;;;;21131313;28;20698;-68
2022/12/01 06:40:31;;;;;;;6.37;3.90;;;;;;;;;;21166326;28;20241;-68
2022/12/01 06:50:32;;;;;;;5.53;2.60;;;;;;;;;;21191177;28;20203;-70
2022/12/01 07:00:35;;;;;;;5.13;3.80;;;;;;;;;;21162998;28;20713;-69
2022/12/01 07:10:37;;;;;;;5.07;2.90;;;;;;;;;;21161159;28;20257;-68
2022/12/01 07:20:38;;;;;;;4.83;2.83;;;;;;;;;;21145216;28;20539;-66
2022/12/01 07:30:40;;;;;;;3.30;2.40;;;;;;;;;;21162406;28;20704;-66
2022/12/01 07:40:41;;;;;;;4.60;2.33;;;;;;;;;;21160365;28;20200;-67
2022/12/01 07:50:44;;;;;;;4.30;2.37;;;;;;;;;;21159904;28;20232;-66
2022/12/01 08:00:46;;;;;;;4.40;2.93;;;;;;;;;;21159444;28;20342;-66
2022/12/01 08:10:47;;;;;;;5.27;2.13;;;;;;;;;;21159013;28;20277;-66
2022/12/01 08:20:49;;;;;;;3.67;1.90;;;;;;;;;;21156270;28;20261;-67
2022/12/01 08:30:51;;;;;;;3.83;2.03;;;;;;;;;;21156798;28;20278;-67
2022/12/01 08:40:55;;;;;;;3.47;1.90;;;;;;;;;;21156002;28;20212;-67
2022/12/01 08:51:04;;;;;;;4.27;2.20;;;5.80;99.90;;;;;;21153757;28;20211;-67
2022/12/01 09:01:08;;;;;;;5.77;2.87;;;;;;;;;;21135340;28;20296;-67
2022/12/01 09:11:12;;;;;;;3.60;2.43;;;;;;;;;;21152407;28;20224;-67
2022/12/01 09:21:16;;;;;;;3.97;2.33;;;5.90;99.90;;;;;;21151952;28;20208;-67
2022/12/01 09:31:19;;;;;;;5.47;2.47;;;;;;;;;;21124227;28;20220;-67
2022/12/01 09:41:26;;;;;;;3.43;2.03;;;5.80;99.90;;;;;;21064957;28;20205;-67
2022/12/01 09:51:29;;;;;;;3.87;1.80;;;;;;;;;;21091711;28;20249;-66
2022/12/01 10:01:37;;;;;;;4.03;2.70;;;5.90;99.90;;;;;;21147708;27;20207;-67
2022/12/01 10:11:40;;;;;;;3.83;2.27;;;;;;;;;;21156326;28;20231;-67
2022/12/01 10:21:51;;;;;;;4.10;2.20;;;;;;;;;;21127034;28;20261;-68
2022/12/01 10:31:54;;;;;;;8.30;3.13;;;;;;;;;;21073057;28;20589;-67
2022/12/01 10:42:11;;;;;;;5.53;2.80;;;5.80;99.90;;;;;;21070102;28;20262;-68
2022/12/01 10:52:33;;;;;;;4.77;2.77;;;;;;;;;;21130162;28;20215;-67
2022/12/01 11:02:35;;;;;;;3.30;2.07;;;;;;;;;;21114475;28;20320;-67
2022/12/01 11:12:37;;;;;;;4.50;2.73;;;;;;;;;;21149069;28;20756;-68
2022/12/01 11:22:39;;;;;;;5.43;2.83;;;;;;;;;;21151031;28;20208;-67
2022/12/01 11:32:49;;;;;;;3.43;2.03;;;;;;;;;;21151262;28;20238;-68
2022/12/01 11:42:56;;;;;;;3.20;2.13;;;6.10;99.90;;;;;;21159354;28;20219;-67
2022/12/01 11:52:58;;;;;;;3.70;2.07;;;;;;;;;;21159911;28;20269;-67
2022/12/01 12:03:05;;;;;;;2.53;1.77;;;;;;;;;;21152281;28;20265;-67
2022/12/01 12:13:14;;;;;;;3.80;2.43;;;6.00;99.90;;;;;;21156661;28;20228;-67
2022/12/01 12:23:41;;;;;;;3.40;1.87;;;6.00;99.90;;;;;;21155984;28;20245;-67
2022/12/01 12:33:53;;;;;;;2.83;1.87;;;6.10;99.90;;;;;;21156715;28;20492;-67
2022/12/01 12:44:13;;;;;;;3.50;2.30;;;;;;;;;;21155478;28;20211;-67
2022/12/01 12:54:18;;;;;;;3.27;2.20;;;;;;;;;;21154352;28;20228;-67
2022/12/01 13:04:24;;;;;;;3.23;2.07;;;;;;;;;;21154273;28;20264;-67
2022/12/01 13:14:32;;;;;;;3.83;2.30;;;;;;;;;;21152821;28;20238;-68
2022/12/01 13:24:34;;;;;;;4.00;2.03;;;;;;;;;;21130796;28;20204;-68
2022/12/01 13:34:41;;;;;;;3.03;2.00;;;6.00;99.90;;;;;;21139298;28;20223;-68
2022/12/01 13:44:50;;;;;;;3.90;2.00;;;6.10;99.90;;;;;;21145477;28;20566;-68
2022/12/01 13:55:04;;;;;;;3.30;2.10;;;;;;;;;;21149278;28;20219;-67
2022/12/01 14:05:26;;;;;;;4.13;2.23;;;;;;;;;;21129388;28;20199;-68
2022/12/01 14:15:41;;;;;;;6.10;2.83;;;;;;;;;;21107808;28;20702;-68
2022/12/01 14:25:56;;;;;;;4.00;2.00;;;6.00;99.90;;;;;;21148677;28;20245;-68
2022/12/01 14:35:58;;;;;;;3.00;2.07;;;;;;;;;;21146257;28;20775;-68
2022/12/01 14:46:06;;;;;;;4.60;2.37;;;;;;;;;;21144306;28;20265;-67
2022/12/01 14:56:15;;;;;;;4.87;2.30;;;5.90;99.90;;;;;;21156831;28;20656;-67
2022/12/01 15:06:25;;;;;;;3.03;1.77;;;5.80;99.90;;;;;;21140035;28;20622;-67
2022/12/01 15:16:31;;;;;;;4.47;2.20;;;5.80;99.90;;;;;;21149045;28;20252;-67
2022/12/01 15:26:38;;;;;;;5.70;2.40;;;;;;;;;;21156531;28;20203;-67
2022/12/01 15:36:39;;;;;;;3.73;2.17;;;;;;;;;;21147794;28;20224;-67
2022/12/01 15:46:42;;;;;;;4.40;2.67;;;;;;;;;;21153375;28;20210;-67
2022/12/01 15:56:44;;;;;;;4.43;2.90;;;5.80;99.90;;;;;;21159667;28;20220;-67
2022/12/01 16:07:13;;;;;;;4.90;2.80;;;;;;;;;;21158031;28;20277;-67
2022/12/01 16:17:16;;;;;;;3.80;2.47;;;;;;;;;;21144562;28;20580;-67
2022/12/01 16:27:25;;;;;;;5.27;3.07;;;;;;;;;;21157546;28;20224;-67
2022/12/01 16:37:27;;;;;;;6.63;3.70;;;;;;;;;;21128633;28;20257;-67
2022/12/01 16:47:30;;;;;;;5.37;3.07;;;;;;;;;;21134185;27;20297;-67
2022/12/01 16:57:32;;;;;;;4.13;2.67;;;;;;;;;;21132755;28;20304;-67
2022/12/01 17:07:34;;;;;;;4.37;2.90;;;;;;;;;;21141079;28;20713;-67
2022/12/01 17:17:36;;;;;;;4.20;2.53;;;;;;;;;;21121930;28;20820;-67
2022/12/01 17:27:38;;;;;;;3.80;2.47;;;;;;;;;;21129451;27;20954;-67
2022/12/01 17:37:40;;;;;;;6.23;3.13;;;;;;;;;;21128935;28;20247;-68
2022/12/01 17:47:42;;;;;;;4.47;3.03;;;;;;;;;;21131009;28;20584;-68
2022/12/01 17:57:44;;;;;;;5.77;3.20;;;;;;;;;;21135009;28;20263;-67
2022/12/01 18:07:46;;;;;;;4.17;2.63;;;;;;;;;;21096436;22;20613;-66
2022/12/01 18:17:47;;;;;;;4.67;2.77;;;;;;;;;;21023125;28;20220;-68
2022/12/01 18:27:56;;;;;;;5.40;3.33;;;;;;;;;;21034627;28;20224;-68
2022/12/01 18:37:59;;;;;;;5.90;3.43;;;;;;;;;;21040414;28;20289;-68
2022/12/01 18:48:03;;;;;;;5.73;3.07;;;;;;;;;;21039672;28;20205;-68
2022/12/01 18:58:05;;;;;;;4.80;2.90;;;;;;;;;;21036386;28;20220;-68
2022/12/01 19:08:07;;;;;;;4.73;2.90;;;;;;;;;;21019764;28;20273;-68
2022/12/01 19:18:09;;;;;;;5.50;2.93;;;;;;;;;;21019116;28;20216;-68
2022/12/01 19:28:12;;;;;;;7.13;3.50;;;;;;;;;;21055742;28;20286;-68
2022/12/01 19:38:15;;;;;;;4.20;3.03;;;;;;;;;;21039405;28;20236;-67
2022/12/01 19:48:17;;;;;;;5.70;2.70;;;;;;;;;;21041656;28;20288;-68
2022/12/01 19:58:19;;;;;;;5.37;2.90;;;;;;;;;;21040466;28;20606;-68
2022/12/01 20:08:21;;;;;;;6.20;3.20;;;;;;;;;;21024004;28;20290;-67
2022/12/01 20:18:23;;;;;;;7.50;3.50;;;;;;;;;;21033298;28;20612;-67
2022/12/01 20:28:26;;;;;;;8.23;3.53;;;5.20;99.90;;;;;;21032465;28;20266;-67
2022/12/01 20:38:28;;;;;;;5.43;2.77;;;;;;;;;;21035473;28;20246;-67
2022/12/01 20:48:30;;;;;;;4.87;2.93;;;5.30;99.90;;;;;;21016488;28;20209;-67
2022/12/01 20:58:32;;;;;;;5.03;3.50;;;;;;;;;;21000472;28;20241;-68
2022/12/01 21:08:38;;;;;;;4.23;2.70;;;;;;;;;;21051570;28;20236;-67
2022/12/01 21:18:43;;;;;;;5.83;3.43;;;;;;;;;;21034563;28;20217;-67
2022/12/01 21:28:45;;;;;;;5.73;3.20;;;;;;;;;;21036201;28;20216;-68
2022/12/01 21:38:54;;;;;;;6.23;3.63;;;5.20;99.90;;;;;;21034813;28;20232;-67
2022/12/01 21:48:56;;;;;;;5.90;3.10;;;;;;;;;;21034962;28;20225;-67
2022/12/01 21:59:02;;;;;;;6.77;3.73;;;;;;;;;;21037297;28;20236;-67
2022/12/01 22:09:13;;;;;;;3.77;2.53;;;;;;;;;;21051574;28;20240;-67
2022/12/01 22:19:16;;;;;;;5.90;3.30;;;;;;;;;;21050943;28;20273;-67
2022/12/01 22:29:24;;;;;;;4.70;2.70;;;;;;;;;;21065788;28;20588;-67
2022/12/01 22:39:32;;;;;;;5.10;3.53;;;5.10;99.90;;;;;;21049478;28;20225;-67
2022/12/01 22:49:34;;;;;;;5.60;3.20;;;;;;;;;;21032177;28;20235;-67
2022/12/01 22:59:39;;;;;;;5.40;3.23;;;5.10;99.90;;;;;;21032019;28;20282;-67
2022/12/01 23:09:42;;;;;;;5.13;2.67;;;;;;;;;;21046162;28;20232;-67
2022/12/01 23:19:45;;;;;;;5.00;3.10;;;4.90;99.90;;;;;;21045841;28;20294;-67
2022/12/01 23:29:47;;;;;;;5.17;3.23;;;;;;;;;;21056242;28;20216;-67
2022/12/01 23:39:50;;;;;;;6.17;3.33;;;;;;;;;;21043145;28;20232;-67
2022/12/01 23:49:57;;;;;;;7.80;3.67;;;;;;;;;;21043054;28;20224;-67
